sensor_id;sensor_type;location;lat;lon;timestamp;temperature;humidity
9790;DHT22;4934;50.852;8.098;2023-07-20T00:01:20;16.80;99.90
9790;DHT22;4934;50.852;8.098;2023-07-20T00:03:45;16.80;99.90
9790;DHT22;4934;50.852;8.098;2023-07-20T00:06:13;16.80;99.90
9790;DHT22;4934;50.852;8.098;2023-07-20T00:08:39;16.70;99.90
9790;DHT22;4934;50.852;8.098;2023-07-20T00:11:04;16.70;99.90
9790;DHT22;4934;50.852;8.098;2023-07-20T00:13:30;16.60;99.90
9790;DHT22;4934;50.852;8.098;2023-07-20T00:15:55;16.60;99.90
9790;DHT22;4934;50.852;8.098;2023-07-20T00:18:21;16.60;99.90
9790;DHT22;4934;50.852;8.098;2023-07-20T00:20:46;16.50;99.90
9790;DHT22;4934;50.852;8.098;2023-07-20T00:23:12;16.40;99.90
9790;DHT22;4934;50.852;8.098;2023-07-20T00:25:37;16.40;99.90
9790;DHT22;4934;50.852;8.098;2023-07-20T00:28:03;16.30;99.90
9790;DHT22;4934;50.852;8.098;2023-07-20T00:30:28;16.30;99.90
9790;DHT22;4934;50.852;8.098;2023-07-20T00:32:54;16.20;99.90
9790;DHT22;4934;50.852;8.098;2023-07-20T00:35:19;16.10;99.90
9790;DHT22;4934;50.852;8.098;2023-07-20T00:37:45;16.00;99.90
9790;DHT22;4934;50.852;8.098;2023-07-20T00:40:10;15.80;99.90
9790;DHT22;4934;50.852;8.098;2023-07-20T00:42:36;15.80;99.90
9790;DHT22;4934;50.852;8.098;2023-07-20T00:45:01;15.70;99.90
9790;DHT22;4934;50.852;8.098;2023-07-20T00:47:27;15.60;99.90
9790;DHT22;4934;50.852;8.098;2023-07-20T00:49:53;15.50;99.90
9790;DHT22;4934;50.852;8.098;2023-07-20T00:52:20;15.50;99.90
9790;DHT22;4934;50.852;8.098;2023-07-20T00:54:46;15.30;99.90
9790;DHT22;4934;50.852;8.098;2023-07-20T00:57:12;15.30;99.90
9790;DHT22;4934;50.852;8.098;2023-07-20T00:59:39;15.30;99.90
9790;DHT22;4934;50.852;8.098;2023-07-20T01:02:05;15.20;99.90
9790;DHT22;4934;50.852;8.098;2023-07-20T01:04:30;15.10;99.90
9790;DHT22;4934;50.852;8.098;2023-07-20T01:07:04;15.10;99.90
9790;DHT22;4934;50.852;8.098;2023-07-20T01:09:34;15.00;99.90
9790;DHT22;4934;50.852;8.098;2023-07-20T01:12:04;15.00;99.90
9790;DHT22;4934;50.852;8.098;2023-07-20T01:14:32;15.00;99.90
9790;DHT22;4934;50.852;8.098;2023-07-20T01:16:58;15.00;99.90
9790;DHT22;4934;50.852;8.098;2023-07-20T01:19:23;15.10;99.90
9790;DHT22;4934;50.852;8.098;2023-07-20T01:22:09;15.00;99.90
9790;DHT22;4934;50.852;8.098;2023-07-20T01:27:17;14.80;99.90
9790;DHT22;4934;50.852;8.098;2023-07-20T01:32:13;14.70;99.90
9790;DHT22;4934;50.852;8.098;2023-07-20T01:34:40;14.50;99.90
9790;DHT22;4934;50.852;8.098;2023-07-20T01:37:06;14.40;99.90
9790;DHT22;4934;50.852;8.098;2023-07-20T01:39:31;14.40;99.90
9790;DHT22;4934;50.852;8.098;2023-07-20T01:41:58;14.40;99.90
9790;DHT22;4934;50.852;8.098;2023-07-20T01:44:24;14.30;99.90
9790;DHT22;4934;50.852;8.098;2023-07-20T01:46:49;14.40;99.90
9790;DHT22;4934;50.852;8.098;2023-07-20T01:49:15;14.20;99.90
9790;DHT22;4934;50.852;8.098;2023-07-20T01:51:40;14.10;99.90
9790;DHT22;4934;50.852;8.098;2023-07-20T01:54:06;14.00;99.90
9790;DHT22;4934;50.852;8.098;2023-07-20T01:56:32;14.10;99.90
9790;DHT22;4934;50.852;8.098;2023-07-20T01:58:57;14.10;99.90
9790;DHT22;4934;50.852;8.098;2023-07-20T02:01:23;14.00;99.90
9790;DHT22;4934;50.852;8.098;2023-07-20T02:03:48;14.00;99.90
9790;DHT22;4934;50.852;8.098;2023-07-20T02:06:13;14.00;99.90
9790;DHT22;4934;50.852;8.098;2023-07-20T02:08:39;13.90;99.90
9790;DHT22;4934;50.852;8.098;2023-07-20T02:11:04;14.00;99.90
9790;DHT22;4934;50.852;8.098;2023-07-20T02:13:30;14.00;99.90
9790;DHT22;4934;50.852;8.098;2023-07-20T02:15:56;14.00;99.90
9790;DHT22;4934;50.852;8.098;2023-07-20T02:18:21;14.00;99.90
9790;DHT22;4934;50.852;8.098;2023-07-20T02:20:47;13.90;99.90
9790;DHT22;4934;50.852;8.098;2023-07-20T02:23:12;13.90;99.90
9790;DHT22;4934;50.852;8.098;2023-07-20T02:25:38;13.90;99.90
9790;DHT22;4934;50.852;8.098;2023-07-20T02:28:04;13.90;99.90
9790;DHT22;4934;50.852;8.098;2023-07-20T02:30:29;13.90;99.90
9790;DHT22;4934;50.852;8.098;2023-07-20T02:32:55;14.00;99.90
9790;DHT22;4934;50.852;8.098;2023-07-20T02:35:23;14.00;99.90
9790;DHT22;4934;50.852;8.098;2023-07-20T02:37:49;14.00;99.90
9790;DHT22;4934;50.852;8.098;2023-07-20T02:40:14;14.00;99.90
9790;DHT22;4934;50.852;8.098;2023-07-20T02:42:40;14.00;99.90
9790;DHT22;4934;50.852;8.098;2023-07-20T02:45:06;13.90;99.90
9790;DHT22;4934;50.852;8.098;2023-07-20T02:47:31;14.00;99.90
9790;DHT22;4934;50.852;8.098;2023-07-20T02:49:57;13.90;99.90
9790;DHT22;4934;50.852;8.098;2023-07-20T02:52:22;13.90;99.90
9790;DHT22;4934;50.852;8.098;2023-07-20T02:54:49;13.90;99.90
9790;DHT22;4934;50.852;8.098;2023-07-20T02:57:14;13.90;99.90
9790;DHT22;4934;50.852;8.098;2023-07-20T02:59:40;14.00;99.90
9790;DHT22;4934;50.852;8.098;2023-07-20T03:02:05;13.90;99.90
9790;DHT22;4934;50.852;8.098;2023-07-20T03:04:30;13.90;99.90
9790;DHT22;4934;50.852;8.098;2023-07-20T03:06:56;13.90;99.90
9790;DHT22;4934;50.852;8.098;2023-07-20T03:09:21;13.90;99.90
9790;DHT22;4934;50.852;8.098;2023-07-20T03:11:47;13.90;99.90
9790;DHT22;4934;50.852;8.098;2023-07-20T03:14:14;13.90;99.90
9790;DHT22;4934;50.852;8.098;2023-07-20T03:16:39;14.00;99.90
9790;DHT22;4934;50.852;8.098;2023-07-20T03:19:05;14.00;99.90
9790;DHT22;4934;50.852;8.098;2023-07-20T03:21:30;13.90;99.90
9790;DHT22;4934;50.852;8.098;2023-07-20T03:23:56;13.90;99.90
9790;DHT22;4934;50.852;8.098;2023-07-20T03:26:21;14.00;99.90
9790;DHT22;4934;50.852;8.098;2023-07-20T03:28:47;13.90;99.90
9790;DHT22;4934;50.852;8.098;2023-07-20T03:31:12;13.90;99.90
9790;DHT22;4934;50.852;8.098;2023-07-20T03:33:38;13.90;99.90
9790;DHT22;4934;50.852;8.098;2023-07-20T03:36:03;14.00;99.90
9790;DHT22;4934;50.852;8.098;2023-07-20T03:38:29;14.00;99.90
9790;DHT22;4934;50.852;8.098;2023-07-20T03:40:55;14.00;99.90
9790;DHT22;4934;50.852;8.098;2023-07-20T03:43:21;14.10;99.90
9790;DHT22;4934;50.852;8.098;2023-07-20T03:45:47;14.10;99.90
9790;DHT22;4934;50.852;8.098;2023-07-20T03:48:17;14.00;99.90
9790;DHT22;4934;50.852;8.098;2023-07-20T03:50:46;14.00;99.90
9790;DHT22;4934;50.852;8.098;2023-07-20T03:53:12;14.00;99.90
9790;DHT22;4934;50.852;8.098;2023-07-20T03:55:37;14.00;99.90
9790;DHT22;4934;50.852;8.098;2023-07-20T03:58:03;14.10;99.90
9790;DHT22;4934;50.852;8.098;2023-07-20T04:00:28;14.10;99.90
9790;DHT22;4934;50.852;8.098;2023-07-20T04:02:54;14.10;99.90
9790;DHT22;4934;50.852;8.098;2023-07-20T04:05:19;14.10;99.90
9790;DHT22;4934;50.852;8.098;2023-07-20T04:07:45;14.10;99.90
9790;DHT22;4934;50.852;8.098;2023-07-20T04:10:10;14.20;99.90
9790;DHT22;4934;50.852;8.098;2023-07-20T04:12:36;14.10;99.90
9790;DHT22;4934;50.852;8.098;2023-07-20T04:15:02;14.10;99.90
9790;DHT22;4934;50.852;8.098;2023-07-20T04:17:29;14.20;99.90
9790;DHT22;4934;50.852;8.098;2023-07-20T04:19:54;14.20;99.90
9790;DHT22;4934;50.852;8.098;2023-07-20T04:22:20;14.30;99.90
9790;DHT22;4934;50.852;8.098;2023-07-20T04:24:46;14.30;99.90
9790;DHT22;4934;50.852;8.098;2023-07-20T04:27:11;14.30;99.90
9790;DHT22;4934;50.852;8.098;2023-07-20T04:29:37;14.40;99.90
9790;DHT22;4934;50.852;8.098;2023-07-20T04:32:03;14.40;99.90
9790;DHT22;4934;50.852;8.098;2023-07-20T04:34:28;14.40;99.90
9790;DHT22;4934;50.852;8.098;2023-07-20T04:36:53;14.40;99.90
9790;DHT22;4934;50.852;8.098;2023-07-20T04:39:19;14.40;99.90
9790;DHT22;4934;50.852;8.098;2023-07-20T04:41:44;14.40;99.90
9790;DHT22;4934;50.852;8.098;2023-07-20T04:44:10;14.50;99.90
9790;DHT22;4934;50.852;8.098;2023-07-20T04:46:36;14.60;99.90
9790;DHT22;4934;50.852;8.098;2023-07-20T04:49:01;14.70;99.90
9790;DHT22;4934;50.852;8.098;2023-07-20T04:51:27;14.70;99.90
9790;DHT22;4934;50.852;8.098;2023-07-20T04:53:54;14.70;99.90
9790;DHT22;4934;50.852;8.098;2023-07-20T04:56:20;14.80;99.90
9790;DHT22;4934;50.852;8.098;2023-07-20T04:58:45;14.90;99.90
9790;DHT22;4934;50.852;8.098;2023-07-20T05:01:11;15.00;99.90
9790;DHT22;4934;50.852;8.098;2023-07-20T05:03:36;15.00;99.90
9790;DHT22;4934;50.852;8.098;2023-07-20T05:06:02;15.00;99.90
9790;DHT22;4934;50.852;8.098;2023-07-20T05:08:27;15.00;99.90
9790;DHT22;4934;50.852;8.098;2023-07-20T05:10:53;15.10;99.90
9790;DHT22;4934;50.852;8.098;2023-07-20T05:13:18;15.20;99.90
9790;DHT22;4934;50.852;8.098;2023-07-20T05:15:44;15.20;99.90
9790;DHT22;4934;50.852;8.098;2023-07-20T05:18:09;15.30;99.90
9790;DHT22;4934;50.852;8.098;2023-07-20T05:20:35;15.40;99.90
9790;DHT22;4934;50.852;8.098;2023-07-20T05:23:01;15.40;99.90
9790;DHT22;4934;50.852;8.098;2023-07-20T05:25:26;15.40;99.90
9790;DHT22;4934;50.852;8.098;2023-07-20T05:27:52;15.40;99.90
9790;DHT22;4934;50.852;8.098;2023-07-20T05:30:18;15.50;99.90
9790;DHT22;4934;50.852;8.098;2023-07-20T05:32:44;15.50;99.90
9790;DHT22;4934;50.852;8.098;2023-07-20T05:35:12;15.60;99.90
9790;DHT22;4934;50.852;8.098;2023-07-20T05:37:39;15.70;99.90
9790;DHT22;4934;50.852;8.098;2023-07-20T05:40:05;15.90;99.90
9790;DHT22;4934;50.852;8.098;2023-07-20T05:42:31;16.00;99.90
9790;DHT22;4934;50.852;8.098;2023-07-20T05:44:57;16.00;99.90
9790;DHT22;4934;50.852;8.098;2023-07-20T05:47:22;16.20;99.90
9790;DHT22;4934;50.852;8.098;2023-07-20T05:49:47;16.30;99.90
9790;DHT22;4934;50.852;8.098;2023-07-20T05:52:13;16.30;99.90
9790;DHT22;4934;50.852;8.098;2023-07-20T05:54:38;16.40;99.90
9790;DHT22;4934;50.852;8.098;2023-07-20T05:57:04;16.40;99.90
9790;DHT22;4934;50.852;8.098;2023-07-20T05:59:30;16.40;99.90
9790;DHT22;4934;50.852;8.098;2023-07-20T06:01:55;16.40;99.90
9790;DHT22;4934;50.852;8.098;2023-07-20T06:04:21;16.30;99.90
9790;DHT22;4934;50.852;8.098;2023-07-20T06:06:46;16.40;99.90
9790;DHT22;4934;50.852;8.098;2023-07-20T06:09:11;16.50;99.90
9790;DHT22;4934;50.852;8.098;2023-07-20T06:11:38;16.60;99.90
9790;DHT22;4934;50.852;8.098;2023-07-20T06:14:03;16.80;99.90
9790;DHT22;4934;50.852;8.098;2023-07-20T06:16:29;16.90;99.90
9790;DHT22;4934;50.852;8.098;2023-07-20T06:18:55;17.00;99.90
9790;DHT22;4934;50.852;8.098;2023-07-20T06:21:20;17.00;99.90
9790;DHT22;4934;50.852;8.098;2023-07-20T06:23:46;16.80;99.90
9790;DHT22;4934;50.852;8.098;2023-07-20T06:26:11;16.80;99.90
9790;DHT22;4934;50.852;8.098;2023-07-20T06:28:37;16.90;99.90
9790;DHT22;4934;50.852;8.098;2023-07-20T06:31:03;16.90;99.90
9790;DHT22;4934;50.852;8.098;2023-07-20T06:33:28;17.00;99.90
9790;DHT22;4934;50.852;8.098;2023-07-20T06:35:54;17.00;99.90
9790;DHT22;4934;50.852;8.098;2023-07-20T06:38:19;17.00;99.90
9790;DHT22;4934;50.852;8.098;2023-07-20T06:40:48;16.80;99.90
9790;DHT22;4934;50.852;8.098;2023-07-20T06:43:13;17.10;99.90
9790;DHT22;4934;50.852;8.098;2023-07-20T06:45:40;17.10;99.90
9790;DHT22;4934;50.852;8.098;2023-07-20T06:48:05;17.10;99.90
9790;DHT22;4934;50.852;8.098;2023-07-20T06:50:31;17.20;99.90
9790;DHT22;4934;50.852;8.098;2023-07-20T06:52:56;17.30;99.90
9790;DHT22;4934;50.852;8.098;2023-07-20T06:55:22;17.10;99.90
9790;DHT22;4934;50.852;8.098;2023-07-20T06:57:48;17.00;99.90
9790;DHT22;4934;50.852;8.098;2023-07-20T07:00:13;17.00;99.90
9790;DHT22;4934;50.852;8.098;2023-07-20T07:02:39;16.90;99.90
9790;DHT22;4934;50.852;8.098;2023-07-20T07:05:05;17.20;99.90
9790;DHT22;4934;50.852;8.098;2023-07-20T07:07:31;17.50;99.90
9790;DHT22;4934;50.852;8.098;2023-07-20T07:09:57;17.50;99.90
9790;DHT22;4934;50.852;8.098;2023-07-20T07:12:22;17.50;99.90
9790;DHT22;4934;50.852;8.098;2023-07-20T07:14:48;17.70;99.90
9790;DHT22;4934;50.852;8.098;2023-07-20T07:17:13;17.80;99.90
9790;DHT22;4934;50.852;8.098;2023-07-20T07:19:39;17.80;99.90
9790;DHT22;4934;50.852;8.098;2023-07-20T07:22:06;17.70;99.90
9790;DHT22;4934;50.852;8.098;2023-07-20T07:24:31;18.00;99.90
9790;DHT22;4934;50.852;8.098;2023-07-20T07:26:59;18.00;99.90
9790;DHT22;4934;50.852;8.098;2023-07-20T07:29:25;18.10;99.90
9790;DHT22;4934;50.852;8.098;2023-07-20T07:31:51;18.30;99.90
9790;DHT22;4934;50.852;8.098;2023-07-20T07:34:16;18.50;99.90
9790;DHT22;4934;50.852;8.098;2023-07-20T07:36:42;18.50;99.90
9790;DHT22;4934;50.852;8.098;2023-07-20T07:39:08;18.60;99.90
9790;DHT22;4934;50.852;8.098;2023-07-20T07:41:34;18.60;99.90
9790;DHT22;4934;50.852;8.098;2023-07-20T07:44:00;18.80;99.90
9790;DHT22;4934;50.852;8.098;2023-07-20T07:46:25;18.90;99.90
9790;DHT22;4934;50.852;8.098;2023-07-20T07:48:51;19.00;99.90
9790;DHT22;4934;50.852;8.098;2023-07-20T07:51:16;19.10;99.90
9790;DHT22;4934;50.852;8.098;2023-07-20T07:53:42;18.80;99.90
9790;DHT22;4934;50.852;8.098;2023-07-20T07:56:08;18.30;99.90
9790;DHT22;4934;50.852;8.098;2023-07-20T07:58:34;18.80;99.90
9790;DHT22;4934;50.852;8.098;2023-07-20T08:01:00;19.00;99.90
9790;DHT22;4934;50.852;8.098;2023-07-20T08:03:25;19.20;99.90
9790;DHT22;4934;50.852;8.098;2023-07-20T08:05:53;19.20;99.90
9790;DHT22;4934;50.852;8.098;2023-07-20T08:08:20;19.40;99.90
9790;DHT22;4934;50.852;8.098;2023-07-20T08:10:46;19.80;99.90
9790;DHT22;4934;50.852;8.098;2023-07-20T08:13:12;19.70;99.90
9790;DHT22;4934;50.852;8.098;2023-07-20T08:15:38;19.40;99.90
9790;DHT22;4934;50.852;8.098;2023-07-20T08:18:03;19.50;99.90
9790;DHT22;4934;50.852;8.098;2023-07-20T08:20:29;19.30;99.90
9790;DHT22;4934;50.852;8.098;2023-07-20T08:22:55;19.50;99.90
9790;DHT22;4934;50.852;8.098;2023-07-20T08:25:20;19.70;99.90
9790;DHT22;4934;50.852;8.098;2023-07-20T08:27:46;19.90;99.90
9790;DHT22;4934;50.852;8.098;2023-07-20T08:30:12;20.20;99.90
9790;DHT22;4934;50.852;8.098;2023-07-20T08:32:38;20.00;99.90
9790;DHT22;4934;50.852;8.098;2023-07-20T08:35:03;20.30;99.90
9790;DHT22;4934;50.852;8.098;2023-07-20T08:37:29;20.60;99.90
9790;DHT22;4934;50.852;8.098;2023-07-20T08:39:54;20.80;99.90
9790;DHT22;4934;50.852;8.098;2023-07-20T08:42:20;21.30;99.90
9790;DHT22;4934;50.852;8.098;2023-07-20T08:44:46;21.50;99.90
9790;DHT22;4934;50.852;8.098;2023-07-20T08:47:12;21.10;99.90
9790;DHT22;4934;50.852;8.098;2023-07-20T08:49:39;20.60;99.90
9790;DHT22;4934;50.852;8.098;2023-07-20T08:52:04;20.60;99.90
9790;DHT22;4934;50.852;8.098;2023-07-20T08:54:30;20.90;99.90
9790;DHT22;4934;50.852;8.098;2023-07-20T08:57:02;21.20;99.90
9790;DHT22;4934;50.852;8.098;2023-07-20T08:59:28;21.00;99.90
9790;DHT22;4934;50.852;8.098;2023-07-20T09:01:55;21.00;99.90
9790;DHT22;4934;50.852;8.098;2023-07-20T09:04:22;20.90;99.90
9790;DHT22;4934;50.852;8.098;2023-07-20T09:06:48;20.80;99.90
9790;DHT22;4934;50.852;8.098;2023-07-20T09:09:14;20.90;99.90
9790;DHT22;4934;50.852;8.098;2023-07-20T09:11:40;20.60;99.90
9790;DHT22;4934;50.852;8.098;2023-07-20T09:14:06;20.30;99.90
9790;DHT22;4934;50.852;8.098;2023-07-20T09:16:31;19.70;99.90
9790;DHT22;4934;50.852;8.098;2023-07-20T09:18:57;19.80;99.90
9790;DHT22;4934;50.852;8.098;2023-07-20T09:21:23;20.10;99.90
9790;DHT22;4934;50.852;8.098;2023-07-20T09:23:48;20.40;99.90
9790;DHT22;4934;50.852;8.098;2023-07-20T09:26:18;20.90;99.90
9790;DHT22;4934;50.852;8.098;2023-07-20T09:28:51;20.80;99.90
9790;DHT22;4934;50.852;8.098;2023-07-20T09:31:17;20.50;99.90
9790;DHT22;4934;50.852;8.098;2023-07-20T09:33:44;20.50;99.90
9790;DHT22;4934;50.852;8.098;2023-07-20T09:36:09;20.90;99.90
9790;DHT22;4934;50.852;8.098;2023-07-20T09:38:36;21.20;99.90
9790;DHT22;4934;50.852;8.098;2023-07-20T09:41:02;21.60;99.90
9790;DHT22;4934;50.852;8.098;2023-07-20T09:43:31;21.80;99.90
9790;DHT22;4934;50.852;8.098;2023-07-20T09:45:58;22.20;99.90
9790;DHT22;4934;50.852;8.098;2023-07-20T09:48:24;22.50;99.90
9790;DHT22;4934;50.852;8.098;2023-07-20T09:50:50;22.60;99.90
9790;DHT22;4934;50.852;8.098;2023-07-20T09:53:16;22.20;99.90
9790;DHT22;4934;50.852;8.098;2023-07-20T09:55:52;22.00;99.90
9790;DHT22;4934;50.852;8.098;2023-07-20T09:58:18;21.40;99.90
9790;DHT22;4934;50.852;8.098;2023-07-20T10:00:44;20.30;99.90
9790;DHT22;4934;50.852;8.098;2023-07-20T10:03:19;19.90;99.90
9790;DHT22;4934;50.852;8.098;2023-07-20T10:05:47;19.60;99.90
9790;DHT22;4934;50.852;8.098;2023-07-20T10:08:13;19.60;99.90
9790;DHT22;4934;50.852;8.098;2023-07-20T10:10:40;19.50;99.90
9790;DHT22;4934;50.852;8.098;2023-07-20T10:13:06;20.10;99.90
9790;DHT22;4934;50.852;8.098;2023-07-20T10:20:29;21.20;99.90
9790;DHT22;4934;50.852;8.098;2023-07-20T10:22:55;20.60;99.90
9790;DHT22;4934;50.852;8.098;2023-07-20T10:25:22;19.80;99.90
9790;DHT22;4934;50.852;8.098;2023-07-20T10:27:47;19.60;99.90
9790;DHT22;4934;50.852;8.098;2023-07-20T10:30:13;19.60;99.90
9790;DHT22;4934;50.852;8.098;2023-07-20T10:32:39;19.60;99.90
9790;DHT22;4934;50.852;8.098;2023-07-20T10:35:11;19.90;99.90
9790;DHT22;4934;50.852;8.098;2023-07-20T10:37:53;20.00;99.90
9790;DHT22;4934;50.852;8.098;2023-07-20T10:41:01;19.90;99.90
9790;DHT22;4934;50.852;8.098;2023-07-20T10:43:08;19.80;99.90
9790;DHT22;4934;50.852;8.098;2023-07-20T10:48:02;20.10;99.90
9790;DHT22;4934;50.852;8.098;2023-07-20T10:50:28;20.00;99.90
9790;DHT22;4934;50.852;8.098;2023-07-20T10:53:13;20.00;99.90
9790;DHT22;4934;50.852;8.098;2023-07-20T10:55:39;20.20;99.90
9790;DHT22;4934;50.852;8.098;2023-07-20T10:58:09;19.80;99.90
9790;DHT22;4934;50.852;8.098;2023-07-20T11:00:35;19.80;99.90
9790;DHT22;4934;50.852;8.098;2023-07-20T11:03:01;19.70;99.90
9790;DHT22;4934;50.852;8.098;2023-07-20T11:07:57;19.70;99.90
9790;DHT22;4934;50.852;8.098;2023-07-20T11:10:23;19.70;99.90
9790;DHT22;4934;50.852;8.098;2023-07-20T11:16:15;20.30;99.90
9790;DHT22;4934;50.852;8.098;2023-07-20T11:18:21;20.70;99.90
9790;DHT22;4934;50.852;8.098;2023-07-20T11:20:50;20.40;99.90
9790;DHT22;4934;50.852;8.098;2023-07-20T11:23:16;20.30;99.90
9790;DHT22;4934;50.852;8.098;2023-07-20T11:25:42;20.20;99.90
9790;DHT22;4934;50.852;8.098;2023-07-20T11:28:08;20.00;99.90
9790;DHT22;4934;50.852;8.098;2023-07-20T11:30:37;19.60;99.90
9790;DHT22;4934;50.852;8.098;2023-07-20T11:33:04;19.80;99.90
9790;DHT22;4934;50.852;8.098;2023-07-20T11:35:30;20.10;99.90
9790;DHT22;4934;50.852;8.098;2023-07-20T11:37:55;20.00;99.90
9790;DHT22;4934;50.852;8.098;2023-07-20T11:40:22;20.30;99.90
9790;DHT22;4934;50.852;8.098;2023-07-20T11:42:47;20.50;99.90
9790;DHT22;4934;50.852;8.098;2023-07-20T11:45:16;20.70;99.90
9790;DHT22;4934;50.852;8.098;2023-07-20T11:47:41;20.80;99.90
9790;DHT22;4934;50.852;8.098;2023-07-20T11:50:07;21.10;99.90
9790;DHT22;4934;50.852;8.098;2023-07-20T11:52:33;21.20;99.90
9790;DHT22;4934;50.852;8.098;2023-07-20T11:55:00;21.50;99.90
9790;DHT22;4934;50.852;8.098;2023-07-20T11:57:25;21.40;99.90
9790;DHT22;4934;50.852;8.098;2023-07-20T11:59:55;21.60;99.90
9790;DHT22;4934;50.852;8.098;2023-07-20T12:02:26;21.20;99.90
9790;DHT22;4934;50.852;8.098;2023-07-20T12:04:52;21.30;99.90
9790;DHT22;4934;50.852;8.098;2023-07-20T12:07:21;20.90;99.90
9790;DHT22;4934;50.852;8.098;2023-07-20T12:12:33;20.70;99.90
9790;DHT22;4934;50.852;8.098;2023-07-20T12:17:44;20.90;99.90
9790;DHT22;4934;50.852;8.098;2023-07-20T12:20:10;21.00;99.90
9790;DHT22;4934;50.852;8.098;2023-07-20T12:22:39;20.90;99.90
9790;DHT22;4934;50.852;8.098;2023-07-20T12:25:05;20.70;99.90
9790;DHT22;4934;50.852;8.098;2023-07-20T12:27:31;20.50;99.90
9790;DHT22;4934;50.852;8.098;2023-07-20T12:29:56;20.50;99.90
9790;DHT22;4934;50.852;8.098;2023-07-20T12:32:22;20.70;99.90
9790;DHT22;4934;50.852;8.098;2023-07-20T12:34:48;20.70;99.90
9790;DHT22;4934;50.852;8.098;2023-07-20T12:37:13;20.90;99.90
9790;DHT22;4934;50.852;8.098;2023-07-20T12:39:43;21.20;99.90
9790;DHT22;4934;50.852;8.098;2023-07-20T12:42:12;21.30;99.90
9790;DHT22;4934;50.852;8.098;2023-07-20T12:44:37;21.40;99.90
9790;DHT22;4934;50.852;8.098;2023-07-20T12:47:03;21.40;99.90
9790;DHT22;4934;50.852;8.098;2023-07-20T12:49:28;21.50;99.90
9790;DHT22;4934;50.852;8.098;2023-07-20T12:51:54;21.60;99.90
9790;DHT22;4934;50.852;8.098;2023-07-20T12:54:19;21.80;99.90
9790;DHT22;4934;50.852;8.098;2023-07-20T12:56:45;21.90;99.90
9790;DHT22;4934;50.852;8.098;2023-07-20T12:59:10;22.10;99.90
9790;DHT22;4934;50.852;8.098;2023-07-20T13:01:36;21.30;99.90
9790;DHT22;4934;50.852;8.098;2023-07-20T13:04:03;20.70;99.90
9790;DHT22;4934;50.852;8.098;2023-07-20T13:06:29;20.60;99.90
9790;DHT22;4934;50.852;8.098;2023-07-20T13:08:54;20.60;99.90
9790;DHT22;4934;50.852;8.098;2023-07-20T13:11:21;20.80;99.90
9790;DHT22;4934;50.852;8.098;2023-07-20T13:13:47;21.30;99.90
9790;DHT22;4934;50.852;8.098;2023-07-20T13:16:13;21.60;99.90
9790;DHT22;4934;50.852;8.098;2023-07-20T13:18:40;21.70;99.90
9790;DHT22;4934;50.852;8.098;2023-07-20T13:21:05;21.60;99.90
9790;DHT22;4934;50.852;8.098;2023-07-20T13:23:36;21.80;99.90
9790;DHT22;4934;50.852;8.098;2023-07-20T13:26:02;21.70;99.90
9790;DHT22;4934;50.852;8.098;2023-07-20T13:28:28;22.00;99.90
9790;DHT22;4934;50.852;8.098;2023-07-20T13:30:53;22.10;99.90
9790;DHT22;4934;50.852;8.098;2023-07-20T13:33:19;22.40;99.90
9790;DHT22;4934;50.852;8.098;2023-07-20T13:35:44;21.70;99.90
9790;DHT22;4934;50.852;8.098;2023-07-20T13:38:10;21.50;99.90
9790;DHT22;4934;50.852;8.098;2023-07-20T13:40:35;21.50;99.90
9790;DHT22;4934;50.852;8.098;2023-07-20T13:43:02;21.90;99.90
9790;DHT22;4934;50.852;8.098;2023-07-20T13:45:27;21.80;99.90
9790;DHT22;4934;50.852;8.098;2023-07-20T13:47:53;21.60;99.90
9790;DHT22;4934;50.852;8.098;2023-07-20T13:50:18;21.60;99.90
9790;DHT22;4934;50.852;8.098;2023-07-20T13:52:44;21.50;99.90
9790;DHT22;4934;50.852;8.098;2023-07-20T13:55:09;21.40;99.90
9790;DHT22;4934;50.852;8.098;2023-07-20T13:57:35;21.20;99.90
9790;DHT22;4934;50.852;8.098;2023-07-20T14:00:00;21.00;99.90
9790;DHT22;4934;50.852;8.098;2023-07-20T14:02:27;21.20;99.90
9790;DHT22;4934;50.852;8.098;2023-07-20T14:04:52;21.20;99.90
9790;DHT22;4934;50.852;8.098;2023-07-20T14:07:21;21.10;99.90
9790;DHT22;4934;50.852;8.098;2023-07-20T14:09:46;21.40;99.90
9790;DHT22;4934;50.852;8.098;2023-07-20T14:12:12;21.40;99.90
9790;DHT22;4934;50.852;8.098;2023-07-20T14:14:42;21.40;99.90
9790;DHT22;4934;50.852;8.098;2023-07-20T14:17:07;21.40;99.90
9790;DHT22;4934;50.852;8.098;2023-07-20T14:19:33;21.50;99.90
9790;DHT22;4934;50.852;8.098;2023-07-20T14:21:58;21.50;99.90
9790;DHT22;4934;50.852;8.098;2023-07-20T14:24:25;22.10;99.90
9790;DHT22;4934;50.852;8.098;2023-07-20T14:26:50;22.40;99.90
9790;DHT22;4934;50.852;8.098;2023-07-20T14:29:16;22.60;99.90
9790;DHT22;4934;50.852;8.098;2023-07-20T14:31:43;22.90;99.90
9790;DHT22;4934;50.852;8.098;2023-07-20T14:34:09;23.20;99.90
9790;DHT22;4934;50.852;8.098;2023-07-20T14:36:34;23.40;97.60
9790;DHT22;4934;50.852;8.098;2023-07-20T14:39:00;23.10;98.10
9790;DHT22;4934;50.852;8.098;2023-07-20T14:41:25;23.30;99.50
9790;DHT22;4934;50.852;8.098;2023-07-20T14:43:51;23.00;98.70
9790;DHT22;4934;50.852;8.098;2023-07-20T14:46:17;22.40;99.90
9790;DHT22;4934;50.852;8.098;2023-07-20T14:48:42;22.60;99.90
9790;DHT22;4934;50.852;8.098;2023-07-20T14:51:08;22.50;99.90
9790;DHT22;4934;50.852;8.098;2023-07-20T14:53:33;22.30;99.90
9790;DHT22;4934;50.852;8.098;2023-07-20T14:56:02;22.00;99.90
9790;DHT22;4934;50.852;8.098;2023-07-20T14:58:29;22.30;99.90
9790;DHT22;4934;50.852;8.098;2023-07-20T15:00:54;22.50;99.90
9790;DHT22;4934;50.852;8.098;2023-07-20T15:03:20;22.50;99.70
9790;DHT22;4934;50.852;8.098;2023-07-20T15:05:46;22.70;99.90
9790;DHT22;4934;50.852;8.098;2023-07-20T15:08:11;22.80;97.80
9790;DHT22;4934;50.852;8.098;2023-07-20T15:10:36;22.70;99.00
9790;DHT22;4934;50.852;8.098;2023-07-20T15:13:02;23.00;98.20
9790;DHT22;4934;50.852;8.098;2023-07-20T15:15:28;23.40;99.90
9790;DHT22;4934;50.852;8.098;2023-07-20T15:17:53;22.40;98.90
9790;DHT22;4934;50.852;8.098;2023-07-20T15:20:19;22.00;99.90
9790;DHT22;4934;50.852;8.098;2023-07-20T15:22:45;22.20;99.40
9790;DHT22;4934;50.852;8.098;2023-07-20T15:25:10;22.30;99.90
9790;DHT22;4934;50.852;8.098;2023-07-20T15:27:37;22.00;99.90
9790;DHT22;4934;50.852;8.098;2023-07-20T15:30:02;22.10;99.90
9790;DHT22;4934;50.852;8.098;2023-07-20T15:32:28;21.50;99.30
9790;DHT22;4934;50.852;8.098;2023-07-20T15:34:54;21.60;99.80
9790;DHT22;4934;50.852;8.098;2023-07-20T15:37:19;21.50;99.90
9790;DHT22;4934;50.852;8.098;2023-07-20T15:39:48;21.70;99.90
9790;DHT22;4934;50.852;8.098;2023-07-20T15:42:14;21.60;99.90
9790;DHT22;4934;50.852;8.098;2023-07-20T15:44:39;21.60;99.90
9790;DHT22;4934;50.852;8.098;2023-07-20T15:47:05;21.70;99.50
9790;DHT22;4934;50.852;8.098;2023-07-20T15:49:31;21.50;99.10
9790;DHT22;4934;50.852;8.098;2023-07-20T15:51:59;21.50;98.30
9790;DHT22;4934;50.852;8.098;2023-07-20T15:54:24;21.80;98.80
9790;DHT22;4934;50.852;8.098;2023-07-20T15:56:50;21.80;98.70
9790;DHT22;4934;50.852;8.098;2023-07-20T15:59:15;21.70;99.60
9790;DHT22;4934;50.852;8.098;2023-07-20T16:01:42;21.80;99.70
9790;DHT22;4934;50.852;8.098;2023-07-20T16:04:07;21.70;99.20
9790;DHT22;4934;50.852;8.098;2023-07-20T16:06:33;21.90;99.00
9790;DHT22;4934;50.852;8.098;2023-07-20T16:09:01;22.20;98.60
9790;DHT22;4934;50.852;8.098;2023-07-20T16:11:26;22.30;98.60
9790;DHT22;4934;50.852;8.098;2023-07-20T16:13:52;22.20;99.00
9790;DHT22;4934;50.852;8.098;2023-07-20T16:16:18;22.40;99.00
9790;DHT22;4934;50.852;8.098;2023-07-20T16:18:43;22.60;98.50